sensor_id;sensor_type;location;lat;lon;timestamp;temperature;humidity
22765;DHT22;11549;50.852;3.816;2023-04-03T00:01:32;3.70;99.90
22765;DHT22;11549;50.852;3.816;2023-04-03T00:04:03;3.60;99.90
22765;DHT22;11549;50.852;3.816;2023-04-03T00:06:32;3.60;99.90
22765;DHT22;11549;50.852;3.816;2023-04-03T00:09:02;3.60;99.90
22765;DHT22;11549;50.852;3.816;2023-04-03T00:11:30;3.70;99.90
22765;DHT22;11549;50.852;3.816;2023-04-03T00:13:58;3.60;99.90
22765;DHT22;11549;50.852;3.816;2023-04-03T00:16:26;3.60;99.90
22765;DHT22;11549;50.852;3.816;2023-04-03T00:18:55;3.70;99.90
22765;DHT22;11549;50.852;3.816;2023-04-03T00:21:25;3.70;99.90
22765;DHT22;11549;50.852;3.816;2023-04-03T00:23:53;3.70;99.90
22765;DHT22;11549;50.852;3.816;2023-04-03T00:26:22;3.70;99.90
22765;DHT22;11549;50.852;3.816;2023-04-03T00:28:50;3.80;99.90
22765;DHT22;11549;50.852;3.816;2023-04-03T00:31:18;3.80;99.90
22765;DHT22;11549;50.852;3.816;2023-04-03T00:33:47;3.90;99.90
22765;DHT22;11549;50.852;3.816;2023-04-03T00:36:15;3.80;99.90
22765;DHT22;11549;50.852;3.816;2023-04-03T00:38:45;3.90;99.90
22765;DHT22;11549;50.852;3.816;2023-04-03T00:41:14;3.90;99.90
22765;DHT22;11549;50.852;3.816;2023-04-03T00:43:42;4.00;99.90
22765;DHT22;11549;50.852;3.816;2023-04-03T00:46:10;3.90;99.90
22765;DHT22;11549;50.852;3.816;2023-04-03T00:48:41;3.80;99.90
22765;DHT22;11549;50.852;3.816;2023-04-03T00:51:13;3.80;99.90
22765;DHT22;11549;50.852;3.816;2023-04-03T00:53:46;3.70;99.90
22765;DHT22;11549;50.852;3.816;2023-04-03T00:56:18;3.60;99.90
22765;DHT22;11549;50.852;3.816;2023-04-03T00:58:51;3.60;99.90
22765;DHT22;11549;50.852;3.816;2023-04-03T01:01:22;3.60;99.90
22765;DHT22;11549;50.852;3.816;2023-04-03T01:03:52;3.60;99.90
22765;DHT22;11549;50.852;3.816;2023-04-03T01:06:23;3.70;99.90
22765;DHT22;11549;50.852;3.816;2023-04-03T01:08:55;3.70;99.90
22765;DHT22;11549;50.852;3.816;2023-04-03T01:11:23;3.70;99.90
22765;DHT22;11549;50.852;3.816;2023-04-03T01:13:52;3.70;99.90
22765;DHT22;11549;50.852;3.816;2023-04-03T01:16:20;3.60;99.90
22765;DHT22;11549;50.852;3.816;2023-04-03T01:18:48;3.60;99.90
22765;DHT22;11549;50.852;3.816;2023-04-03T01:21:51;3.60;99.90
22765;DHT22;11549;50.852;3.816;2023-04-03T01:24:32;3.60;99.90
22765;DHT22;11549;50.852;3.816;2023-04-03T01:27:03;3.60;99.90
22765;DHT22;11549;50.852;3.816;2023-04-03T01:29:32;3.50;99.90
22765;DHT22;11549;50.852;3.816;2023-04-03T01:32:03;3.40;99.90
22765;DHT22;11549;50.852;3.816;2023-04-03T01:34:32;3.30;99.90
22765;DHT22;11549;50.852;3.816;2023-04-03T01:37:00;3.20;99.90
22765;DHT22;11549;50.852;3.816;2023-04-03T01:39:29;3.20;99.90
22765;DHT22;11549;50.852;3.816;2023-04-03T01:41:57;3.10;99.90
22765;DHT22;11549;50.852;3.816;2023-04-03T01:44:26;3.10;99.90
22765;DHT22;11549;50.852;3.816;2023-04-03T01:46:54;3.20;99.90
22765;DHT22;11549;50.852;3.816;2023-04-03T01:49:24;3.30;99.90
22765;DHT22;11549;50.852;3.816;2023-04-03T01:51:53;3.30;99.90
22765;DHT22;11549;50.852;3.816;2023-04-03T01:54:21;3.30;99.90
22765;DHT22;11549;50.852;3.816;2023-04-03T01:56:49;3.20;99.90
22765;DHT22;11549;50.852;3.816;2023-04-03T01:59:18;3.10;99.90
22765;DHT22;11549;50.852;3.816;2023-04-03T02:01:46;3.10;99.90
22765;DHT22;11549;50.852;3.816;2023-04-03T02:04:14;3.10;99.90
22765;DHT22;11549;50.852;3.816;2023-04-03T02:06:44;3.10;99.90
22765;DHT22;11549;50.852;3.816;2023-04-03T02:09:13;3.20;99.90
22765;DHT22;11549;50.852;3.816;2023-04-03T02:11:41;3.10;99.90
22765;DHT22;11549;50.852;3.816;2023-04-03T02:14:09;3.00;99.90
22765;DHT22;11549;50.852;3.816;2023-04-03T02:16:38;3.00;99.90
22765;DHT22;11549;50.852;3.816;2023-04-03T02:19:06;3.00;99.90
22765;DHT22;11549;50.852;3.816;2023-04-03T02:21:35;3.10;99.90
22765;DHT22;11549;50.852;3.816;2023-04-03T02:24:05;3.20;99.90
22765;DHT22;11549;50.852;3.816;2023-04-03T02:26:33;3.20;99.90
22765;DHT22;11549;50.852;3.816;2023-04-03T02:29:02;3.20;99.90
22765;DHT22;11549;50.852;3.816;2023-04-03T02:31:30;3.30;99.90
22765;DHT22;11549;50.852;3.816;2023-04-03T02:33:59;3.30;99.90
22765;DHT22;11549;50.852;3.816;2023-04-03T02:36:27;3.40;99.90
22765;DHT22;11549;50.852;3.816;2023-04-03T02:38:58;3.30;99.90
22765;DHT22;11549;50.852;3.816;2023-04-03T02:41:28;3.30;99.90
22765;DHT22;11549;50.852;3.816;2023-04-03T02:44:03;3.30;99.90
22765;DHT22;11549;50.852;3.816;2023-04-03T02:46:31;3.20;99.90
22765;DHT22;11549;50.852;3.816;2023-04-03T02:48:59;3.10;99.90
22765;DHT22;11549;50.852;3.816;2023-04-03T02:51:28;3.10;99.90
22765;DHT22;11549;50.852;3.816;2023-04-03T02:53:56;3.10;99.90
22765;DHT22;11549;50.852;3.816;2023-04-03T02:56:25;3.20;99.90
22765;DHT22;11549;50.852;3.816;2023-04-03T02:58:55;3.20;99.90
22765;DHT22;11549;50.852;3.816;2023-04-03T03:01:23;3.20;99.90
22765;DHT22;11549;50.852;3.816;2023-04-03T03:03:52;3.20;99.90
22765;DHT22;11549;50.852;3.816;2023-04-03T03:06:20;3.20;99.90
22765;DHT22;11549;50.852;3.816;2023-04-03T03:08:48;3.10;99.90
22765;DHT22;11549;50.852;3.816;2023-04-03T03:11:17;3.10;99.90
22765;DHT22;11549;50.852;3.816;2023-04-03T03:13:45;3.10;99.90
22765;DHT22;11549;50.852;3.816;2023-04-03T03:16:15;3.10;99.90
22765;DHT22;11549;50.852;3.816;2023-04-03T03:18:43;3.00;99.90
22765;DHT22;11549;50.852;3.816;2023-04-03T03:21:12;3.10;99.90
22765;DHT22;11549;50.852;3.816;2023-04-03T03:23:40;3.00;99.90
22765;DHT22;11549;50.852;3.816;2023-04-03T03:26:10;3.00;99.90
22765;DHT22;11549;50.852;3.816;2023-04-03T03:28:39;2.90;99.90
22765;DHT22;11549;50.852;3.816;2023-04-03T03:31:09;2.80;99.90
22765;DHT22;11549;50.852;3.816;2023-04-03T03:33:41;2.70;99.90
22765;DHT22;11549;50.852;3.816;2023-04-03T03:36:09;2.60;99.90
22765;DHT22;11549;50.852;3.816;2023-04-03T03:38:38;2.60;99.90
22765;DHT22;11549;50.852;3.816;2023-04-03T03:41:07;2.60;99.90
22765;DHT22;11549;50.852;3.816;2023-04-03T03:43:35;2.60;99.90
22765;DHT22;11549;50.852;3.816;2023-04-03T03:46:03;2.70;99.90
22765;DHT22;11549;50.852;3.816;2023-04-03T03:48:32;2.80;99.90
22765;DHT22;11549;50.852;3.816;2023-04-03T03:51:02;2.70;99.90
22765;DHT22;11549;50.852;3.816;2023-04-03T03:53:30;2.80;99.90
22765;DHT22;11549;50.852;3.816;2023-04-03T03:55:59;2.70;99.90
22765;DHT22;11549;50.852;3.816;2023-04-03T03:58:27;2.70;99.90
22765;DHT22;11549;50.852;3.816;2023-04-03T04:00:55;2.80;99.90
22765;DHT22;11549;50.852;3.816;2023-04-03T04:03:24;2.90;99.90
22765;DHT22;11549;50.852;3.816;2023-04-03T04:05:52;2.90;99.90
22765;DHT22;11549;50.852;3.816;2023-04-03T04:08:23;2.90;99.90
22765;DHT22;11549;50.852;3.816;2023-04-03T04:10:51;3.10;99.90
22765;DHT22;11549;50.852;3.816;2023-04-03T04:13:20;3.00;99.90
22765;DHT22;11549;50.852;3.816;2023-04-03T04:15:48;3.10;99.90
22765;DHT22;11549;50.852;3.816;2023-04-03T04:18:17;3.00;99.90
22765;DHT22;11549;50.852;3.816;2023-04-03T04:20:47;3.00;99.90
22765;DHT22;11549;50.852;3.816;2023-04-03T04:23:15;3.00;99.90
22765;DHT22;11549;50.852;3.816;2023-04-03T04:25:46;3.00;99.90
22765;DHT22;11549;50.852;3.816;2023-04-03T04:28:14;2.90;99.90
22765;DHT22;11549;50.852;3.816;2023-04-03T04:30:43;2.90;99.90
22765;DHT22;11549;50.852;3.816;2023-04-03T04:33:12;2.70;99.90
22765;DHT22;11549;50.852;3.816;2023-04-03T04:35:42;2.60;99.90
22765;DHT22;11549;50.852;3.816;2023-04-03T04:38:10;2.60;99.90
22765;DHT22;11549;50.852;3.816;2023-04-03T04:40:39;2.60;99.90
22765;DHT22;11549;50.852;3.816;2023-04-03T04:43:09;2.60;99.90
22765;DHT22;11549;50.852;3.816;2023-04-03T04:45:41;2.50;99.90
22765;DHT22;11549;50.852;3.816;2023-04-03T04:48:09;2.60;99.90
22765;DHT22;11549;50.852;3.816;2023-04-03T05:10:27;2.30;99.90
22765;DHT22;11549;50.852;3.816;2023-04-03T05:27:22;2.30;99.90
22765;DHT22;11549;50.852;3.816;2023-04-03T05:29:52;2.40;99.90
22765;DHT22;11549;50.852;3.816;2023-04-03T05:32:21;2.40;99.90
22765;DHT22;11549;50.852;3.816;2023-04-03T05:34:50;2.40;99.90
22765;DHT22;11549;50.852;3.816;2023-04-03T05:37:18;2.50;99.90
